Morgan Ray — WDF6085 — position and weather

sailwx.info

Track history (hours):
 
Tides and Currents Weather Stations Pressure Air Temp Water Temp Dewpoint Dewpoint Depression Visibility Wind Speed Wind Dir Waves Ship Positions

Morgan Ray

Owner: Daigle Towing Service LLC., Belle Chasse, LA. More information available from US FCC via Universal Licensing System and Coast Guard Vessel Documentation Center.

Last reported at 2015-Apr-02 06:33 UTC. Time now 2015-Apr-02 06:39 UTC.
Position N 30°24' W 086°51'.

Length 20 m; draft 2 m.

Type: Tug. MMSI: 367470470.

Date/timePositionNaut miles runAvg speedWind from/ knotsBaromVisibWave heightAir tempDewpointWater temp
2015-Apr-02 06:33N 30°24' W 086°51'167 3.5
2015-Mar-31 07:05N 29°56' W 090°01'3 6.0
2015-Mar-31 06:32N 29°55' W 090°04'1 1.4
2015-Mar-31 05:31N 29°54' W 090°05'3 0.9
2015-Mar-31 02:06N 29°51' W 090°04'3 5.2
2015-Mar-31 01:32N 29°54' W 090°05'2 2.3
2015-Mar-31 00:32N 29°52' W 090°04'1 0.9
2015-Mar-30 23:33N 29°53' W 090°04'2 2.1
2015-Mar-30 22:32N 29°55' W 090°05'0 0.0
2015-Mar-30 21:33N 29°55' W 090°05'0 0.0
2015-Mar-30 20:09N 29°55' W 090°05'1 1.0
2015-Mar-30 19:32N 29°55' W 090°04'3 2.7
2015-Mar-30 18:27N 29°57' W 090°02'4 0.3
2015-Mar-30 05:09N 29°54' W 090°05'0 0.0
2015-Mar-30 01:11N 29°54' W 090°05'0 0.0
2015-Mar-29 22:16N 29°54' W 090°05'0 0.0
2015-Mar-29 21:24N 29°54' W 090°05'0 0.0
2015-Mar-29 20:32N 29°54' W 090°05'0 0.0
2015-Mar-29 19:23N 29°54' W 090°05'0 0.0
2015-Mar-29 18:33N 29°54' W 090°05'0 0.0
2015-Mar-29 17:33N 29°54' W 090°05'0 0.0
2015-Mar-29 16:32N 29°54' W 090°05'0 0.0
2015-Mar-29 15:29N 29°54' W 090°05'0 0.0
2015-Mar-29 14:32N 29°54' W 090°05'0 0.0
2015-Mar-29 13:31N 29°54' W 090°05'0 0.0
2015-Mar-29 12:32N 29°54' W 090°05'0 0.0
2015-Mar-29 11:31N 29°54' W 090°05'0 0.0
2015-Mar-29 10:32N 29°54' W 090°05'0 0.0
2015-Mar-29 09:32N 29°54' W 090°05'0 0.0
2015-Mar-29 08:32N 29°54' W 090°05'0 0.0
2015-Mar-29 07:33N 29°54' W 090°05'0 0.0
2015-Mar-29 06:32N 29°54' W 090°05'0 0.0
2015-Mar-29 05:26N 29°54' W 090°05'0 0.0
2015-Mar-29 04:16N 29°54' W 090°05'2 0.1
2015-Mar-28 14:26N 29°55' W 090°04'1 1.4
2015-Mar-28 13:28N 29°54' W 090°05'0 0.0
2015-Mar-28 12:30N 29°54' W 090°05'0 0.4
2015-Mar-28 11:32N 29°54' W 090°05'0 0.0
2015-Mar-28 10:31N 29°54' W 090°05'0 0.0
2015-Mar-28 09:32N 29°54' W 090°05'0 0.0
2015-Mar-28 08:33N 29°54' W 090°05'0 0.0
2015-Mar-28 07:33N 29°54' W 090°05'0 0.0
2015-Mar-28 06:31N 29°54' W 090°05'0 0.0
2015-Mar-28 05:25N 29°54' W 090°05'0 0.0
2015-Mar-28 04:34N 29°54' W 090°05'  
2015-Mar-25 14:16N 29°55' W 089°58'2 0.5
2015-Mar-25 10:14N 29°54' W 089°60'0 0.0
2015-Mar-25 09:33N 29°54' W 089°60'0 0.0
2015-Mar-25 08:19N 29°54' W 089°60'0 0.0
2015-Mar-25 07:14N 29°54' W 089°60'5 2.8
2015-Mar-25 05:19N 29°50' W 090°04'3 3.5
2015-Mar-25 04:32N 29°53' W 090°04'2 2.3
2015-Mar-25 03:33N 29°55' W 090°05'3 3.4
2015-Mar-25 02:33N 29°57' W 090°02'1 1.3
2015-Mar-25 01:32N 29°57' W 090°04'3 2.9
2015-Mar-25 00:29N 29°54' W 090°05'4 3.0
2015-Mar-24 23:05N 29°50' W 090°04'30 4.6
2015-Mar-24 16:25N 29°34' W 090°34'6 7.0
2015-Mar-24 15:33N 29°36' W 090°41'3 3.3
2015-Mar-24 14:33N 29°34' W 090°43'  
Track history (hours):
 
Tides and Currents Weather Stations Pressure Air Temp Water Temp Dewpoint Dewpoint Depression Visibility Wind Speed Wind Dir Waves Ship Positions

Morgan Ray

Owner: Daigle Towing Service LLC., Belle Chasse, LA. More information available from US FCC via Universal Licensing System and Coast Guard Vessel Documentation Center.

Last reported at 2015-Apr-02 06:33 UTC. Time now 2015-Apr-02 06:39 UTC.
Position N 30°24' W 086°51'.

Length 20 m; draft 2 m.

Type: Tug. MMSI: 367470470.

Date/timePositionNaut miles runAvg speedWind from/ knotsBaromVisibWave heightAir tempDewpointWater temp
2015-Apr-02 06:33N 30°24' W 086°51'167 3.5
2015-Mar-31 07:05N 29°56' W 090°01'3 6.0
2015-Mar-31 06:32N 29°55' W 090°04'1 1.4
2015-Mar-31 05:31N 29°54' W 090°05'3 0.9
2015-Mar-31 02:06N 29°51' W 090°04'3 5.2
2015-Mar-31 01:32N 29°54' W 090°05'2 2.3
2015-Mar-31 00:32N 29°52' W 090°04'1 0.9
2015-Mar-30 23:33N 29°53' W 090°04'2 2.1
2015-Mar-30 22:32N 29°55' W 090°05'0 0.0
2015-Mar-30 21:33N 29°55' W 090°05'0 0.0
2015-Mar-30 20:09N 29°55' W 090°05'1 1.0
2015-Mar-30 19:32N 29°55' W 090°04'3 2.7
2015-Mar-30 18:27N 29°57' W 090°02'4 0.3
2015-Mar-30 05:09N 29°54' W 090°05'0 0.0
2015-Mar-30 01:11N 29°54' W 090°05'0 0.0
2015-Mar-29 22:16N 29°54' W 090°05'0 0.0
2015-Mar-29 21:24N 29°54' W 090°05'0 0.0
2015-Mar-29 20:32N 29°54' W 090°05'0 0.0
2015-Mar-29 19:23N 29°54' W 090°05'0 0.0
2015-Mar-29 18:33N 29°54' W 090°05'0 0.0
2015-Mar-29 17:33N 29°54' W 090°05'0 0.0
2015-Mar-29 16:32N 29°54' W 090°05'0 0.0
2015-Mar-29 15:29N 29°54' W 090°05'0 0.0
2015-Mar-29 14:32N 29°54' W 090°05'0 0.0
2015-Mar-29 13:31N 29°54' W 090°05'0 0.0
2015-Mar-29 12:32N 29°54' W 090°05'0 0.0
2015-Mar-29 11:31N 29°54' W 090°05'0 0.0
2015-Mar-29 10:32N 29°54' W 090°05'0 0.0
2015-Mar-29 09:32N 29°54' W 090°05'0 0.0
2015-Mar-29 08:32N 29°54' W 090°05'0 0.0
2015-Mar-29 07:33N 29°54' W 090°05'0 0.0
2015-Mar-29 06:32N 29°54' W 090°05'0 0.0
2015-Mar-29 05:26N 29°54' W 090°05'0 0.0
2015-Mar-29 04:16N 29°54' W 090°05'2 0.1
2015-Mar-28 14:26N 29°55' W 090°04'1 1.4
2015-Mar-28 13:28N 29°54' W 090°05'0 0.0
2015-Mar-28 12:30N 29°54' W 090°05'0 0.4
2015-Mar-28 11:32N 29°54' W 090°05'0 0.0
2015-Mar-28 10:31N 29°54' W 090°05'0 0.0
2015-Mar-28 09:32N 29°54' W 090°05'0 0.0
2015-Mar-28 08:33N 29°54' W 090°05'0 0.0
2015-Mar-28 07:33N 29°54' W 090°05'0 0.0
2015-Mar-28 06:31N 29°54' W 090°05'0 0.0
2015-Mar-28 05:25N 29°54' W 090°05'0 0.0
2015-Mar-28 04:34N 29°54' W 090°05'  
2015-Mar-25 14:16N 29°55' W 089°58'2 0.5
2015-Mar-25 10:14N 29°54' W 089°60'0 0.0
2015-Mar-25 09:33N 29°54' W 089°60'0 0.0
2015-Mar-25 08:19N 29°54' W 089°60'0 0.0
2015-Mar-25 07:14N 29°54' W 089°60'5 2.8
2015-Mar-25 05:19N 29°50' W 090°04'3 3.5
2015-Mar-25 04:32N 29°53' W 090°04'2 2.3
2015-Mar-25 03:33N 29°55' W 090°05'3 3.4
2015-Mar-25 02:33N 29°57' W 090°02'1 1.3
2015-Mar-25 01:32N 29°57' W 090°04'3 2.9
2015-Mar-25 00:29N 29°54' W 090°05'4 3.0
2015-Mar-24 23:05N 29°50' W 090°04'30 4.6
2015-Mar-24 16:25N 29°34' W 090°34'6 7.0
2015-Mar-24 15:33N 29°36' W 090°41'3 3.3
2015-Mar-24 14:33N 29°34' W 090°43'  

Dump ship's entire track history